createdAt,value
2022-10-11T00:00:25.381Z,100330.94
2022-10-11T00:04:26.927Z,100338.28
2022-10-11T00:08:28.476Z,100342.97
2022-10-11T00:12:30.050Z,100343.75
2022-10-11T00:16:31.747Z,100355.31
2022-10-11T00:20:33.352Z,100353.28
2022-10-11T00:24:35.573Z,100354.31
2022-10-11T00:28:38.248Z,100356.19
2022-10-11T00:32:40.053Z,100360.31
2022-10-11T00:36:41.598Z,100373.34
2022-10-11T00:40:43.662Z,100378.81
2022-10-11T00:44:49.828Z,100373.78
2022-10-11T00:48:57.630Z,100390.69
2022-10-11T00:53:05.496Z,100384.47
2022-10-11T00:57:10.214Z,100384.44
2022-10-11T01:01:12.105Z,100387.13
2022-10-11T01:05:32.207Z,100386.28
2022-10-11T01:09:34.101Z,100390.50
2022-10-11T01:13:40.645Z,100388.03
2022-10-11T01:18:06.636Z,100388.59
2022-10-11T01:22:35.584Z,100402.44
2022-10-11T01:27:04.748Z,100395.00
2022-10-11T01:31:19.467Z,100391.31
2022-10-11T01:35:28.637Z,100404.00
2022-10-11T01:39:39.095Z,100407.78
2022-10-11T01:43:42.084Z,100406.88
2022-10-11T01:47:45.760Z,100408.75
2022-10-11T01:51:52.312Z,100407.84
2022-10-11T01:56:24.797Z,100422.63
2022-10-11T02:00:39.458Z,100432.19
2022-10-11T02:04:53.134Z,100437.31
2022-10-11T02:09:16.592Z,100440.72
2022-10-11T02:13:33.882Z,100446.09
2022-10-11T02:17:42.846Z,100441.22
2022-10-11T02:21:48.719Z,100453.34
2022-10-11T02:25:52.500Z,100449.56
2022-10-11T02:29:56.116Z,100441.50
2022-10-11T02:34:05.705Z,100455.34
2022-10-11T02:38:22.113Z,100441.81
2022-10-11T02:42:46.927Z,100447.03
2022-10-11T02:46:50.212Z,100451.13
2022-10-11T02:50:53.731Z,100460.16
2022-10-11T02:54:55.365Z,100463.00
2022-10-11T02:58:56.979Z,100458.22
2022-10-11T03:02:58.631Z,100453.91
2022-10-11T03:07:00.264Z,100462.44
2022-10-11T03:11:01.825Z,100471.56
2022-10-11T03:15:04.181Z,100471.56
2022-10-11T03:19:05.854Z,100472.84
2022-10-11T03:23:07.381Z,100476.41
2022-10-11T03:27:09.047Z,100478.78
2022-10-11T03:31:10.785Z,100486.81
2022-10-11T03:35:12.580Z,100490.16
2022-10-11T03:39:14.304Z,100491.41
2022-10-11T03:43:16.703Z,100504.28
2022-10-11T03:48:14.136Z,100501.84
2022-10-11T03:51:52.946Z,100504.44
2022-10-11T03:56:08.143Z,100514.91
2022-10-11T04:00:10.483Z,100515.91
2022-10-11T04:04:12.116Z,100513.47
2022-10-11T04:08:13.832Z,100513.75
2022-10-11T04:12:15.566Z,100527.47
2022-10-11T04:16:21.023Z,100520.72
2022-10-11T04:20:22.637Z,100530.72
2022-10-11T04:24:24.213Z,100523.19
2022-10-11T04:28:25.949Z,100525.34
2022-10-11T04:32:27.895Z,100530.06
2022-10-11T04:36:30.220Z,100534.56
2022-10-11T04:40:32.750Z,100531.25
2022-10-11T04:44:34.322Z,100529.81
2022-10-11T04:48:36.285Z,100535.97
2022-10-11T04:52:50.409Z,100545.09
2022-10-11T04:56:51.996Z,100554.03
2022-10-11T05:00:54.076Z,100557.00
2022-10-11T05:04:57.756Z,100561.66
2022-10-11T05:09:00.388Z,100564.47
2022-10-11T05:13:01.956Z,100569.16
2022-10-11T05:17:03.627Z,100573.03
2022-10-11T05:21:08.129Z,100584.03
2022-10-11T05:25:09.802Z,100578.81
2022-10-11T05:29:11.549Z,100593.00
2022-10-11T05:33:13.169Z,100603.78
2022-10-11T05:37:14.856Z,100606.34
2022-10-11T05:41:16.804Z,100609.13
2022-10-11T05:45:18.736Z,100604.50
2022-10-11T05:49:20.349Z,100623.50
2022-10-11T05:53:22.255Z,100621.81
2022-10-11T05:57:23.868Z,100614.84
2022-10-11T06:01:26.958Z,100623.72
2022-10-11T06:05:28.674Z,100625.63
2022-10-11T06:09:32.886Z,100637.91
2022-10-11T06:13:35.859Z,100635.56
2022-10-11T06:17:37.768Z,100643.16
2022-10-11T06:21:39.538Z,100649.94
2022-10-11T06:25:41.101Z,100652.88
2022-10-11T06:29:42.796Z,100654.78
2022-10-11T06:33:44.359Z,100664.72
2022-10-11T06:37:45.930Z,100674.44
2022-10-11T06:41:47.538Z,100680.56
2022-10-11T06:45:49.279Z,100682.03
2022-10-11T06:49:50.865Z,100694.28
2022-10-11T06:53:55.653Z,100700.16
2022-10-11T06:57:57.228Z,100694.25
2022-10-11T07:01:58.847Z,100704.81
2022-10-11T07:06:05.778Z,100709.91
2022-10-11T07:10:08.096Z,100712.84
2022-10-11T07:14:09.933Z,100722.56
2022-10-11T07:18:13.389Z,100717.69
2022-10-11T07:22:16.164Z,100727.16
2022-10-11T07:26:18.879Z,100728.59
2022-10-11T07:30:21.828Z,100731.97
2022-10-11T07:34:23.338Z,100729.38
2022-10-11T07:38:25.103Z,100731.63
2022-10-11T07:42:26.919Z,100735.75
2022-10-11T07:46:28.632Z,100730.13
2022-10-11T07:50:30.247Z,100731.94
2022-10-11T07:54:32.933Z,100725.03
2022-10-11T07:58:34.480Z,100727.59
2022-10-11T08:02:36.139Z,100732.94
2022-10-11T08:06:38.025Z,100733.47
2022-10-11T08:10:40.422Z,100726.00
2022-10-11T08:14:42.180Z,100736.56
2022-10-11T08:18:43.947Z,100735.00
2022-10-11T08:22:45.544Z,100740.94
2022-10-11T08:26:47.982Z,100739.31
2022-10-11T08:31:17.801Z,100748.13
2022-10-11T08:35:19.438Z,100742.22
2022-10-11T08:39:20.971Z,100746.72
2022-10-11T08:43:47.168Z,100745.91
2022-10-11T08:47:48.827Z,100742.91
2022-10-11T08:52:04.291Z,100750.09
2022-10-11T08:56:07.124Z,100748.75
2022-10-11T09:00:22.357Z,100754.53
2022-10-11T09:04:27.360Z,100746.69
2022-10-11T09:09:12.981Z,100748.84
2022-10-11T09:13:20.389Z,100755.25
2022-10-11T09:17:30.995Z,100759.50
2022-10-11T09:21:38.515Z,100751.44
2022-10-11T09:26:27.139Z,100746.63
2022-10-11T09:30:28.788Z,100750.50
2022-10-11T09:34:36.778Z,100750.22
2022-10-11T09:39:18.236Z,100745.44
2022-10-11T09:43:20.290Z,100747.53
2022-10-11T09:47:28.073Z,100754.50
2022-10-11T09:51:30.741Z,100743.06
2022-10-11T09:55:52.379Z,100746.91
2022-10-11T10:00:23.336Z,100753.66
2022-10-11T10:05:08.638Z,100755.19
2022-10-11T10:09:27.945Z,100747.16
2022-10-11T10:13:56.073Z,100745.53
2022-10-11T10:17:59.129Z,100741.25
2022-10-11T10:22:04.723Z,100744.00
2022-10-11T10:26:30.220Z,100740.94
2022-10-11T10:30:45.955Z,100737.38
2022-10-11T10:35:09.339Z,100727.31
2022-10-11T10:39:53.912Z,100728.81
2022-10-11T10:44:02.155Z,100729.78
2022-10-11T10:49:11.656Z,100728.16
2022-10-11T10:53:30.277Z,100729.81
2022-10-11T10:58:12.879Z,100720.06
2022-10-11T11:06:51.186Z,100721.00
2022-10-11T11:11:05.213Z,100724.72
2022-10-11T11:15:32.507Z,100723.66
2022-10-11T11:20:13.838Z,100723.44
2022-10-11T11:24:24.259Z,100725.72
2022-10-11T11:28:50.273Z,100704.31
2022-10-11T11:33:10.783Z,100711.50
2022-10-11T11:37:40.619Z,100701.94
2022-10-11T11:41:52.243Z,100707.88
2022-10-11T11:45:59.353Z,100704.78
2022-10-11T11:50:15.206Z,100691.88
2022-10-11T11:54:38.177Z,100691.94
2022-10-11T11:58:48.795Z,100695.41
2022-10-11T12:03:13.512Z,100694.91
2022-10-11T12:07:18.376Z,100684.94
2022-10-11T12:11:25.458Z,100683.53
2022-10-11T12:15:27.460Z,100678.00
2022-10-11T12:19:29.183Z,100672.31
2022-10-11T12:23:30.803Z,100661.19
2022-10-11T12:27:37.287Z,100662.84
2022-10-11T12:31:43.739Z,100655.84
2022-10-11T12:35:53.857Z,100644.75
2022-10-11T12:39:58.455Z,100641.50
2022-10-11T12:44:22.878Z,100640.44
2022-10-11T12:48:46.144Z,100650.16
2022-10-11T12:53:03.398Z,100641.59
2022-10-11T12:57:46.166Z,100630.81
2022-10-11T13:01:52.600Z,100631.94
2022-10-11T13:06:01.472Z,100630.72
2022-10-11T13:10:05.524Z,100623.03
2022-10-11T13:14:17.596Z,100632.75
2022-10-11T13:18:24.612Z,100622.72
2022-10-11T13:22:26.755Z,100627.00
2022-10-11T13:26:30.613Z,100617.31
2022-10-11T13:30:34.488Z,100627.19
2022-10-11T13:34:39.409Z,100630.88
2022-10-11T13:38:41.007Z,100620.59
2022-10-11T13:42:43.552Z,100623.59
2022-10-11T13:46:45.500Z,100625.22
2022-10-11T13:51:10.944Z,100620.72
2022-10-11T13:55:35.662Z,100613.44
2022-10-11T13:59:42.391Z,100612.75
2022-10-11T14:03:47.862Z,100614.09
2022-10-11T14:07:49.591Z,100612.69
2022-10-11T14:11:51.309Z,100612.06
2022-10-11T14:16:06.044Z,100616.47
2022-10-11T14:20:19.921Z,100613.38
2022-10-11T14:24:21.988Z,100607.25
2022-10-11T14:28:23.702Z,100603.16
2022-10-11T14:32:35.231Z,100602.66
2022-10-11T14:36:36.897Z,100607.88
2022-10-11T14:40:38.797Z,100609.22
2022-10-11T14:44:40.892Z,100600.03
2022-10-11T14:48:54.930Z,100598.63
2022-10-11T14:52:58.249Z,100596.72
2022-10-11T14:57:02.868Z,100603.69
2022-10-11T15:01:04.805Z,100594.50
2022-10-11T15:05:06.978Z,100598.13
2022-10-11T15:09:08.977Z,100598.03
2022-10-11T15:13:10.604Z,100597.16
2022-10-11T15:17:12.939Z,100590.16
2022-10-11T15:21:14.724Z,100589.50
2022-10-11T15:25:16.849Z,100591.06
2022-10-11T15:29:32.909Z,100592.66
2022-10-11T15:33:34.540Z,100592.50
2022-10-11T15:37:37.843Z,100588.19
2022-10-11T15:41:39.476Z,100589.91
2022-10-11T15:45:41.236Z,100594.66
2022-10-11T15:49:42.880Z,100589.72
2022-10-11T15:53:44.846Z,100594.22
2022-10-11T15:57:46.505Z,100585.34
2022-10-11T16:01:48.170Z,100587.66
2022-10-11T16:05:52.339Z,100589.19
2022-10-11T16:09:54.000Z,100591.00
2022-10-11T16:13:55.617Z,100588.88
2022-10-11T16:17:57.375Z,100597.66
2022-10-11T16:21:59.010Z,100591.69
2022-10-11T16:26:07.387Z,100596.81
2022-10-11T16:30:11.958Z,100596.56
2022-10-11T16:34:14.988Z,100597.63
2022-10-11T16:38:17.048Z,100601.69
2022-10-11T16:42:18.623Z,100606.56
2022-10-11T16:46:21.465Z,100606.75
2022-10-11T16:50:24.535Z,100604.75
2022-10-11T16:54:30.563Z,100607.22
2022-10-11T16:58:35.165Z,100603.25
2022-10-11T17:02:36.896Z,100606.50
2022-10-11T17:06:40.191Z,100605.69
2022-10-11T17:10:44.464Z,100605.31
2022-10-11T17:14:46.514Z,100598.31
2022-10-11T17:18:49.080Z,100609.72
2022-10-11T17:22:51.540Z,100612.00
2022-10-11T17:26:54.403Z,100608.75
2022-10-11T17:30:57.650Z,100607.63
2022-10-11T17:35:01.995Z,100609.88
2022-10-11T17:39:08.843Z,100608.06
2022-10-11T17:43:12.859Z,100603.25
2022-10-11T17:47:15.086Z,100600.13
2022-10-11T17:51:18.667Z,100603.59
2022-10-11T17:55:20.295Z,100605.16
2022-10-11T17:59:22.299Z,100603.44
2022-10-11T18:03:25.843Z,100612.56
2022-10-11T18:07:27.633Z,100607.03
2022-10-11T18:11:33.825Z,100603.69
2022-10-11T18:15:35.583Z,100601.00
2022-10-11T18:19:37.224Z,100608.31
2022-10-11T18:23:40.827Z,100606.47
2022-10-11T18:27:42.455Z,100615.22
2022-10-11T18:31:44.264Z,100611.25
2022-10-11T18:35:45.811Z,100602.81
2022-10-11T18:39:47.443Z,100610.97
2022-10-11T18:43:56.500Z,100614.19
2022-10-11T18:47:58.229Z,100617.88
2022-10-11T18:51:59.821Z,100612.38
2022-10-11T18:56:03.649Z,100617.88
2022-10-11T19:00:16.809Z,100608.97
2022-10-11T19:04:25.810Z,100602.22
2022-10-11T19:08:27.936Z,100599.72
2022-10-11T19:12:29.623Z,100596.59
2022-10-11T19:16:31.402Z,100601.94
2022-10-11T19:20:35.753Z,100596.06
2022-10-11T19:24:37.361Z,100596.53
2022-10-11T19:28:39.062Z,100590.00
2022-10-11T19:32:40.688Z,100592.84
2022-10-11T19:36:43.148Z,100592.69
2022-10-11T19:40:44.778Z,100588.28
2022-10-11T19:44:46.465Z,100593.41
2022-10-11T19:48:49.687Z,100576.72
2022-10-11T19:52:51.454Z,100589.66
2022-10-11T19:56:53.119Z,100581.63
2022-10-11T20:01:06.531Z,100579.53
2022-10-11T20:05:08.373Z,100586.97
2022-10-11T20:09:28.589Z,100594.84
2022-10-11T20:13:34.866Z,100595.13
2022-10-11T20:17:48.803Z,100596.88
2022-10-11T20:21:50.530Z,100595.66
2022-10-11T20:25:58.945Z,100602.66
2022-10-11T20:30:01.790Z,100602.28
2022-10-11T20:34:07.590Z,100604.88
2022-10-11T20:38:09.127Z,100611.50
2022-10-11T20:42:10.781Z,100606.25
2022-10-11T20:46:15.583Z,100606.31
2022-10-11T20:50:22.128Z,100603.00
2022-10-11T20:54:24.716Z,100596.84
2022-10-11T20:58:26.660Z,100599.03
2022-10-11T21:02:28.239Z,100606.50
2022-10-11T21:06:31.372Z,100607.38
2022-10-11T21:10:33.071Z,100605.34
2022-10-11T21:14:34.694Z,100598.41
2022-10-11T21:18:36.357Z,100600.34
2022-10-11T21:22:38.075Z,100598.69
2022-10-11T21:26:39.637Z,100600.41
2022-10-11T21:30:41.200Z,100597.50
2022-10-11T21:34:43.766Z,100596.22
2022-10-11T21:38:46.105Z,100594.56
2022-10-11T21:42:47.755Z,100593.91
2022-10-11T21:51:16.041Z,100593.28
2022-10-11T21:55:17.604Z,100592.88
2022-10-11T21:59:19.234Z,100594.16
2022-10-11T22:03:20.776Z,100594.59
2022-10-11T22:07:22.308Z,100593.75
2022-10-11T22:11:24.228Z,100586.59
2022-10-11T22:15:25.781Z,100586.19
2022-10-11T22:19:27.544Z,100581.09
2022-10-11T22:23:29.117Z,100577.31
2022-10-11T22:27:30.688Z,100584.94
2022-10-11T22:31:32.382Z,100565.31
2022-10-11T22:35:37.722Z,100564.88
2022-10-11T22:39:39.402Z,100558.78
2022-10-11T22:43:41.087Z,100553.72
2022-10-11T22:47:42.626Z,100548.66
2022-10-11T22:51:44.552Z,100549.25
2022-10-11T22:55:46.679Z,100541.47
2022-10-11T22:59:48.338Z,100547.13
2022-10-11T23:03:52.966Z,100542.66
2022-10-11T23:07:54.839Z,100543.72
2022-10-11T23:11:56.470Z,100549.38
2022-10-11T23:15:58.105Z,100542.59
2022-10-11T23:19:59.795Z,100535.88
2022-10-11T23:24:01.505Z,100536.25
2022-10-11T23:28:03.152Z,100536.47
2022-10-11T23:32:04.881Z,100539.59
2022-10-11T23:36:13.045Z,100534.50
2022-10-11T23:40:16.726Z,100534.47
2022-10-11T23:44:19.740Z,100544.75
2022-10-11T23:48:22.749Z,100535.88
2022-10-11T23:52:24.233Z,100534.97
2022-10-11T23:56:25.851Z,100534.25
